sensor_id;sensor_type;location;lat;lon;timestamp;P1;durP1;ratioP1;P2;durP2;ratioP2
18881;SDS011;9573;50.948;11.600;2022-08-19T00:00:37;41.63;;;23.90;;
18881;SDS011;9573;50.948;11.600;2022-08-19T00:03:05;43.47;;;24.30;;
18881;SDS011;9573;50.948;11.600;2022-08-19T00:05:34;41.93;;;23.97;;
18881;SDS011;9573;50.948;11.600;2022-08-19T00:08:02;41.87;;;24.60;;
18881;SDS011;9573;50.948;11.600;2022-08-19T00:10:29;44.03;;;25.57;;
18881;SDS011;9573;50.948;11.600;2022-08-19T00:12:56;44.80;;;25.37;;
18881;SDS011;9573;50.948;11.600;2022-08-19T00:15:24;43.30;;;25.90;;
18881;SDS011;9573;50.948;11.600;2022-08-19T00:17:51;44.53;;;25.57;;
18881;SDS011;9573;50.948;11.600;2022-08-19T00:20:19;45.43;;;25.73;;
18881;SDS011;9573;50.948;11.600;2022-08-19T00:22:48;46.23;;;26.13;;
18881;SDS011;9573;50.948;11.600;2022-08-19T00:25:16;46.23;;;27.13;;
18881;SDS011;9573;50.948;11.600;2022-08-19T00:27:44;46.77;;;27.77;;
18881;SDS011;9573;50.948;11.600;2022-08-19T00:30:12;48.13;;;27.23;;
18881;SDS011;9573;50.948;11.600;2022-08-19T00:32:40;45.80;;;26.80;;
18881;SDS011;9573;50.948;11.600;2022-08-19T00:35:07;47.77;;;27.23;;
18881;SDS011;9573;50.948;11.600;2022-08-19T00:37:36;49.23;;;26.80;;
18881;SDS011;9573;50.948;11.600;2022-08-19T00:40:10;46.90;;;27.40;;
18881;SDS011;9573;50.948;11.600;2022-08-19T00:42:38;49.57;;;28.10;;
18881;SDS011;9573;50.948;11.600;2022-08-19T00:45:09;50.27;;;28.57;;
18881;SDS011;9573;50.948;11.600;2022-08-19T00:47:42;50.33;;;29.40;;
18881;SDS011;9573;50.948;11.600;2022-08-19T00:50:10;50.63;;;29.40;;
18881;SDS011;9573;50.948;11.600;2022-08-19T00:52:40;48.97;;;28.97;;
18881;SDS011;9573;50.948;11.600;2022-08-19T00:55:13;47.03;;;27.57;;
18881;SDS011;9573;50.948;11.600;2022-08-19T00:57:47;50.30;;;29.07;;
18881;SDS011;9573;50.948;11.600;2022-08-19T01:00:18;48.00;;;28.03;;
18881;SDS011;9573;50.948;11.600;2022-08-19T01:02:46;50.87;;;28.83;;
18881;SDS011;9573;50.948;11.600;2022-08-19T01:05:15;46.83;;;27.73;;
18881;SDS011;9573;50.948;11.600;2022-08-19T01:07:46;48.97;;;28.33;;
18881;SDS011;9573;50.948;11.600;2022-08-19T01:10:17;47.70;;;27.50;;
18881;SDS011;9573;50.948;11.600;2022-08-19T01:12:48;45.00;;;26.60;;
18881;SDS011;9573;50.948;11.600;2022-08-19T01:15:17;48.47;;;27.63;;
18881;SDS011;9573;50.948;11.600;2022-08-19T01:17:49;45.27;;;26.90;;
18881;SDS011;9573;50.948;11.600;2022-08-19T01:20:20;46.07;;;27.07;;
18881;SDS011;9573;50.948;11.600;2022-08-19T01:22:52;48.00;;;27.47;;
18881;SDS011;9573;50.948;11.600;2022-08-19T01:25:24;50.13;;;28.37;;
18881;SDS011;9573;50.948;11.600;2022-08-19T01:27:56;48.87;;;28.43;;
18881;SDS011;9573;50.948;11.600;2022-08-19T01:30:24;54.50;;;29.57;;
18881;SDS011;9573;50.948;11.600;2022-08-19T01:32:56;50.10;;;29.07;;
18881;SDS011;9573;50.948;11.600;2022-08-19T01:35:26;49.73;;;28.77;;
18881;SDS011;9573;50.948;11.600;2022-08-19T01:37:58;48.67;;;27.47;;
18881;SDS011;9573;50.948;11.600;2022-08-19T01:40:32;50.37;;;29.30;;
18881;SDS011;9573;50.948;11.600;2022-08-19T01:43:02;46.73;;;26.23;;
18881;SDS011;9573;50.948;11.600;2022-08-19T01:45:31;44.80;;;24.67;;
18881;SDS011;9573;50.948;11.600;2022-08-19T01:48:00;45.67;;;25.63;;
18881;SDS011;9573;50.948;11.600;2022-08-19T01:50:28;45.67;;;26.17;;
18881;SDS011;9573;50.948;11.600;2022-08-19T01:52:58;48.77;;;27.70;;
18881;SDS011;9573;50.948;11.600;2022-08-19T01:55:26;45.77;;;27.50;;
18881;SDS011;9573;50.948;11.600;2022-08-19T01:57:53;48.47;;;27.60;;
18881;SDS011;9573;50.948;11.600;2022-08-19T02:00:27;46.83;;;25.70;;
18881;SDS011;9573;50.948;11.600;2022-08-19T02:02:56;45.57;;;25.87;;
18881;SDS011;9573;50.948;11.600;2022-08-19T02:05:24;42.33;;;24.87;;
18881;SDS011;9573;50.948;11.600;2022-08-19T02:07:51;39.73;;;22.53;;
18881;SDS011;9573;50.948;11.600;2022-08-19T02:10:20;37.17;;;22.10;;
18881;SDS011;9573;50.948;11.600;2022-08-19T02:12:49;41.53;;;24.27;;
18881;SDS011;9573;50.948;11.600;2022-08-19T02:15:17;39.03;;;22.07;;
18881;SDS011;9573;50.948;11.600;2022-08-19T02:17:45;40.60;;;21.57;;
18881;SDS011;9573;50.948;11.600;2022-08-19T02:20:14;39.57;;;22.33;;
18881;SDS011;9573;50.948;11.600;2022-08-19T02:22:42;39.97;;;21.40;;
18881;SDS011;9573;50.948;11.600;2022-08-19T02:25:10;36.07;;;20.30;;
18881;SDS011;9573;50.948;11.600;2022-08-19T02:27:39;35.00;;;19.90;;
18881;SDS011;9573;50.948;11.600;2022-08-19T02:30:11;34.73;;;20.83;;
18881;SDS011;9573;50.948;11.600;2022-08-19T02:32:41;36.20;;;20.70;;
18881;SDS011;9573;50.948;11.600;2022-08-19T02:35:09;39.23;;;21.17;;
18881;SDS011;9573;50.948;11.600;2022-08-19T02:37:37;39.30;;;21.73;;
18881;SDS011;9573;50.948;11.600;2022-08-19T02:40:22;40.07;;;19.77;;
18881;SDS011;9573;50.948;11.600;2022-08-19T02:42:50;37.30;;;20.73;;
18881;SDS011;9573;50.948;11.600;2022-08-19T02:45:18;38.20;;;21.20;;
18881;SDS011;9573;50.948;11.600;2022-08-19T02:47:45;37.93;;;21.73;;
18881;SDS011;9573;50.948;11.600;2022-08-19T02:50:12;37.33;;;21.53;;
18881;SDS011;9573;50.948;11.600;2022-08-19T02:52:40;36.83;;;21.30;;
18881;SDS011;9573;50.948;11.600;2022-08-19T02:55:07;39.97;;;22.50;;
18881;SDS011;9573;50.948;11.600;2022-08-19T02:57:35;37.93;;;21.07;;
18881;SDS011;9573;50.948;11.600;2022-08-19T03:00:05;39.43;;;21.53;;
18881;SDS011;9573;50.948;11.600;2022-08-19T03:02:36;39.33;;;22.53;;
18881;SDS011;9573;50.948;11.600;2022-08-19T03:05:04;39.70;;;21.90;;
18881;SDS011;9573;50.948;11.600;2022-08-19T03:07:35;41.27;;;21.70;;
18881;SDS011;9573;50.948;11.600;2022-08-19T03:10:04;37.03;;;20.77;;
18881;SDS011;9573;50.948;11.600;2022-08-19T03:12:34;37.63;;;21.33;;
18881;SDS011;9573;50.948;11.600;2022-08-19T03:15:03;38.43;;;20.67;;
18881;SDS011;9573;50.948;11.600;2022-08-19T03:17:33;35.93;;;21.17;;
18881;SDS011;9573;50.948;11.600;2022-08-19T03:20:00;38.13;;;22.40;;
18881;SDS011;9573;50.948;11.600;2022-08-19T03:22:29;39.17;;;20.77;;
18881;SDS011;9573;50.948;11.600;2022-08-19T03:24:56;37.40;;;21.23;;
18881;SDS011;9573;50.948;11.600;2022-08-19T03:27:24;38.33;;;20.90;;
18881;SDS011;9573;50.948;11.600;2022-08-19T03:29:52;38.30;;;21.73;;
18881;SDS011;9573;50.948;11.600;2022-08-19T03:32:23;39.43;;;22.53;;
18881;SDS011;9573;50.948;11.600;2022-08-19T03:34:50;36.20;;;21.30;;
18881;SDS011;9573;50.948;11.600;2022-08-19T03:37:17;40.70;;;22.07;;
18881;SDS011;9573;50.948;11.600;2022-08-19T03:39:44;39.20;;;21.43;;
18881;SDS011;9573;50.948;11.600;2022-08-19T03:42:12;39.23;;;22.20;;
18881;SDS011;9573;50.948;11.600;2022-08-19T03:44:39;36.33;;;21.50;;
18881;SDS011;9573;50.948;11.600;2022-08-19T03:47:07;36.40;;;20.97;;
18881;SDS011;9573;50.948;11.600;2022-08-19T03:49:35;37.23;;;21.10;;
18881;SDS011;9573;50.948;11.600;2022-08-19T03:52:03;37.17;;;21.80;;
18881;SDS011;9573;50.948;11.600;2022-08-19T03:54:32;39.73;;;22.63;;
18881;SDS011;9573;50.948;11.600;2022-08-19T03:57:00;37.77;;;22.93;;
18881;SDS011;9573;50.948;11.600;2022-08-19T03:59:28;37.60;;;22.30;;
18881;SDS011;9573;50.948;11.600;2022-08-19T04:01:59;39.43;;;21.97;;
18881;SDS011;9573;50.948;11.600;2022-08-19T04:04:29;39.00;;;22.43;;
18881;SDS011;9573;50.948;11.600;2022-08-19T04:06:58;39.33;;;22.27;;
18881;SDS011;9573;50.948;11.600;2022-08-19T04:09:25;37.80;;;21.90;;
18881;SDS011;9573;50.948;11.600;2022-08-19T04:11:53;39.40;;;22.73;;
18881;SDS011;9573;50.948;11.600;2022-08-19T04:14:23;40.90;;;23.90;;
18881;SDS011;9573;50.948;11.600;2022-08-19T04:16:55;40.80;;;23.73;;
18881;SDS011;9573;50.948;11.600;2022-08-19T04:19:22;40.10;;;23.13;;
18881;SDS011;9573;50.948;11.600;2022-08-19T04:21:51;40.87;;;24.03;;
18881;SDS011;9573;50.948;11.600;2022-08-19T04:24:22;43.43;;;23.37;;
18881;SDS011;9573;50.948;11.600;2022-08-19T04:26:50;39.50;;;23.27;;
18881;SDS011;9573;50.948;11.600;2022-08-19T04:29:18;39.77;;;22.50;;
18881;SDS011;9573;50.948;11.600;2022-08-19T04:31:49;43.03;;;24.40;;
18881;SDS011;9573;50.948;11.600;2022-08-19T04:34:19;39.57;;;23.17;;
18881;SDS011;9573;50.948;11.600;2022-08-19T04:36:49;40.97;;;24.75;;
18881;SDS011;9573;50.948;11.600;2022-08-19T04:39:23;41.43;;;23.70;;
18881;SDS011;9573;50.948;11.600;2022-08-19T04:42:12;40.47;;;23.17;;
18881;SDS011;9573;50.948;11.600;2022-08-19T04:44:57;44.77;;;22.93;;
18881;SDS011;9573;50.948;11.600;2022-08-19T04:47:29;42.63;;;23.97;;
18881;SDS011;9573;50.948;11.600;2022-08-19T04:49:59;46.83;;;26.07;;
18881;SDS011;9573;50.948;11.600;2022-08-19T04:52:30;41.27;;;24.17;;
18881;SDS011;9573;50.948;11.600;2022-08-19T04:54:59;43.73;;;24.67;;
18881;SDS011;9573;50.948;11.600;2022-08-19T04:57:26;42.33;;;23.87;;
18881;SDS011;9573;50.948;11.600;2022-08-19T04:59:54;44.20;;;25.03;;
18881;SDS011;9573;50.948;11.600;2022-08-19T05:02:22;43.30;;;25.00;;
18881;SDS011;9573;50.948;11.600;2022-08-19T05:04:50;43.70;;;24.40;;
18881;SDS011;9573;50.948;11.600;2022-08-19T05:07:17;43.83;;;24.70;;
18881;SDS011;9573;50.948;11.600;2022-08-19T05:09:45;44.80;;;25.57;;
18881;SDS011;9573;50.948;11.600;2022-08-19T05:12:13;44.33;;;25.73;;
18881;SDS011;9573;50.948;11.600;2022-08-19T05:14:40;44.13;;;25.23;;
18881;SDS011;9573;50.948;11.600;2022-08-19T05:17:07;43.93;;;25.73;;
18881;SDS011;9573;50.948;11.600;2022-08-19T05:19:35;45.37;;;26.57;;
18881;SDS011;9573;50.948;11.600;2022-08-19T05:22:19;48.00;;;26.90;;
18881;SDS011;9573;50.948;11.600;2022-08-19T05:25:01;45.10;;;27.20;;
18881;SDS011;9573;50.948;11.600;2022-08-19T05:27:33;45.23;;;26.17;;
18881;SDS011;9573;50.948;11.600;2022-08-19T05:30:01;45.97;;;27.80;;
18881;SDS011;9573;50.948;11.600;2022-08-19T05:32:30;48.40;;;27.57;;
18881;SDS011;9573;50.948;11.600;2022-08-19T05:34:57;48.30;;;27.53;;
18881;SDS011;9573;50.948;11.600;2022-08-19T05:37:24;45.53;;;26.43;;
18881;SDS011;9573;50.948;11.600;2022-08-19T05:39:52;43.90;;;26.20;;
18881;SDS011;9573;50.948;11.600;2022-08-19T05:42:20;48.70;;;27.43;;
18881;SDS011;9573;50.948;11.600;2022-08-19T05:44:50;45.23;;;25.77;;
18881;SDS011;9573;50.948;11.600;2022-08-19T05:47:18;45.27;;;25.90;;
18881;SDS011;9573;50.948;11.600;2022-08-19T05:49:46;43.47;;;24.77;;
18881;SDS011;9573;50.948;11.600;2022-08-19T05:52:15;44.20;;;26.03;;
18881;SDS011;9573;50.948;11.600;2022-08-19T05:54:42;44.70;;;25.03;;
18881;SDS011;9573;50.948;11.600;2022-08-19T05:57:10;44.47;;;24.43;;
18881;SDS011;9573;50.948;11.600;2022-08-19T05:59:37;40.77;;;24.33;;
18881;SDS011;9573;50.948;11.600;2022-08-19T06:02:06;41.87;;;24.43;;
18881;SDS011;9573;50.948;11.600;2022-08-19T06:04:33;42.63;;;24.77;;
18881;SDS011;9573;50.948;11.600;2022-08-19T06:07:01;47.13;;;26.03;;
18881;SDS011;9573;50.948;11.600;2022-08-19T06:09:31;40.60;;;23.20;;
18881;SDS011;9573;50.948;11.600;2022-08-19T06:11:58;38.00;;;21.77;;
18881;SDS011;9573;50.948;11.600;2022-08-19T06:14:28;40.83;;;23.67;;
18881;SDS011;9573;50.948;11.600;2022-08-19T06:16:59;40.63;;;24.77;;
18881;SDS011;9573;50.948;11.600;2022-08-19T06:19:29;44.47;;;24.83;;
18881;SDS011;9573;50.948;11.600;2022-08-19T06:21:58;39.97;;;23.30;;
18881;SDS011;9573;50.948;11.600;2022-08-19T06:24:26;43.67;;;24.07;;
18881;SDS011;9573;50.948;11.600;2022-08-19T06:26:57;40.50;;;23.43;;
18881;SDS011;9573;50.948;11.600;2022-08-19T06:29:26;41.50;;;24.27;;
18881;SDS011;9573;50.948;11.600;2022-08-19T06:31:55;44.23;;;24.43;;
18881;SDS011;9573;50.948;11.600;2022-08-19T06:34:26;40.53;;;23.30;;
18881;SDS011;9573;50.948;11.600;2022-08-19T06:36:58;42.40;;;24.10;;
18881;SDS011;9573;50.948;11.600;2022-08-19T06:39:28;40.90;;;23.47;;
18881;SDS011;9573;50.948;11.600;2022-08-19T06:42:00;38.23;;;21.97;;
18881;SDS011;9573;50.948;11.600;2022-08-19T06:44:33;45.07;;;24.80;;
18881;SDS011;9573;50.948;11.600;2022-08-19T06:47:05;42.33;;;23.87;;
18881;SDS011;9573;50.948;11.600;2022-08-19T06:49:36;42.33;;;24.53;;
18881;SDS011;9573;50.948;11.600;2022-08-19T06:52:03;42.77;;;24.13;;
18881;SDS011;9573;50.948;11.600;2022-08-19T06:54:32;43.77;;;25.20;;
18881;SDS011;9573;50.948;11.600;2022-08-19T06:57:01;42.77;;;24.07;;
18881;SDS011;9573;50.948;11.600;2022-08-19T06:59:29;43.70;;;25.73;;
18881;SDS011;9573;50.948;11.600;2022-08-19T07:01:59;45.50;;;26.23;;
18881;SDS011;9573;50.948;11.600;2022-08-19T07:04:32;45.60;;;26.33;;
18881;SDS011;9573;50.948;11.600;2022-08-19T07:07:04;47.37;;;29.77;;
18881;SDS011;9573;50.948;11.600;2022-08-19T07:09:35;45.07;;;27.40;;
18881;SDS011;9573;50.948;11.600;2022-08-19T07:12:04;48.43;;;28.73;;
18881;SDS011;9573;50.948;11.600;2022-08-19T07:14:34;47.43;;;26.87;;
18881;SDS011;9573;50.948;11.600;2022-08-19T07:17:03;45.40;;;25.43;;
18881;SDS011;9573;50.948;11.600;2022-08-19T07:19:33;43.27;;;25.27;;
18881;SDS011;9573;50.948;11.600;2022-08-19T07:22:03;43.40;;;26.17;;
18881;SDS011;9573;50.948;11.600;2022-08-19T07:24:32;45.73;;;26.07;;
18881;SDS011;9573;50.948;11.600;2022-08-19T07:27:00;43.00;;;26.53;;
18881;SDS011;9573;50.948;11.600;2022-08-19T07:29:31;45.80;;;27.50;;
18881;SDS011;9573;50.948;11.600;2022-08-19T07:32:00;47.83;;;27.87;;
18881;SDS011;9573;50.948;11.600;2022-08-19T07:34:30;45.73;;;26.57;;
18881;SDS011;9573;50.948;11.600;2022-08-19T07:36:59;45.67;;;26.23;;
18881;SDS011;9573;50.948;11.600;2022-08-19T07:39:29;44.87;;;25.27;;
18881;SDS011;9573;50.948;11.600;2022-08-19T07:42:00;44.63;;;27.40;;
18881;SDS011;9573;50.948;11.600;2022-08-19T07:44:32;45.40;;;26.93;;
18881;SDS011;9573;50.948;11.600;2022-08-19T07:47:00;50.23;;;27.07;;
18881;SDS011;9573;50.948;11.600;2022-08-19T07:49:27;45.07;;;27.13;;
18881;SDS011;9573;50.948;11.600;2022-08-19T07:51:56;44.83;;;26.40;;
18881;SDS011;9573;50.948;11.600;2022-08-19T07:54:31;40.70;;;25.57;;
18881;SDS011;9573;50.948;11.600;2022-08-19T07:57:01;47.27;;;29.07;;
18881;SDS011;9573;50.948;11.600;2022-08-19T07:59:30;48.87;;;27.97;;
18881;SDS011;9573;50.948;11.600;2022-08-19T08:01:58;50.43;;;27.73;;
18881;SDS011;9573;50.948;11.600;2022-08-19T08:04:27;44.33;;;27.13;;
18881;SDS011;9573;50.948;11.600;2022-08-19T08:07:15;46.77;;;27.07;;
18881;SDS011;9573;50.948;11.600;2022-08-19T08:10:01;46.00;;;27.07;;
18881;SDS011;9573;50.948;11.600;2022-08-19T08:12:32;44.23;;;27.63;;
18881;SDS011;9573;50.948;11.600;2022-08-19T08:15:06;43.50;;;26.93;;
18881;SDS011;9573;50.948;11.600;2022-08-19T08:17:37;44.43;;;27.20;;
18881;SDS011;9573;50.948;11.600;2022-08-19T08:20:04;45.13;;;26.80;;
18881;SDS011;9573;50.948;11.600;2022-08-19T08:22:34;43.53;;;26.90;;
18881;SDS011;9573;50.948;11.600;2022-08-19T08:25:21;43.63;;;25.50;;
18881;SDS011;9573;50.948;11.600;2022-08-19T08:27:49;46.00;;;26.13;;
18881;SDS011;9573;50.948;11.600;2022-08-19T08:30:18;50.27;;;27.53;;
18881;SDS011;9573;50.948;11.600;2022-08-19T08:32:47;47.47;;;28.97;;
18881;SDS011;9573;50.948;11.600;2022-08-19T08:35:17;48.43;;;28.47;;
18881;SDS011;9573;50.948;11.600;2022-08-19T08:37:49;43.10;;;25.60;;
18881;SDS011;9573;50.948;11.600;2022-08-19T08:40:20;44.03;;;23.47;;
18881;SDS011;9573;50.948;11.600;2022-08-19T08:42:55;41.63;;;24.60;;
18881;SDS011;9573;50.948;11.600;2022-08-19T08:45:32;37.73;;;21.57;;
18881;SDS011;9573;50.948;11.600;2022-08-19T08:48:12;45.00;;;22.47;;
18881;SDS011;9573;50.948;11.600;2022-08-19T08:50:46;38.93;;;21.90;;
18881;SDS011;9573;50.948;11.600;2022-08-19T08:53:18;40.80;;;22.20;;
18881;SDS011;9573;50.948;11.600;2022-08-19T08:55:47;43.23;;;25.00;;
18881;SDS011;9573;50.948;11.600;2022-08-19T08:58:17;47.20;;;27.20;;
18881;SDS011;9573;50.948;11.600;2022-08-19T09:00:54;52.40;;;29.17;;
18881;SDS011;9573;50.948;11.600;2022-08-19T09:03:22;53.33;;;31.50;;
18881;SDS011;9573;50.948;11.600;2022-08-19T09:05:56;50.73;;;29.87;;
18881;SDS011;9573;50.948;11.600;2022-08-19T09:08:37;49.83;;;28.87;;
18881;SDS011;9573;50.948;11.600;2022-08-19T09:11:13;46.83;;;27.63;;
18881;SDS011;9573;50.948;11.600;2022-08-19T09:13:49;47.50;;;26.73;;
18881;SDS011;9573;50.948;11.600;2022-08-19T09:16:29;45.83;;;26.43;;
18881;SDS011;9573;50.948;11.600;2022-08-19T09:18:57;44.67;;;27.10;;
18881;SDS011;9573;50.948;11.600;2022-08-19T09:21:30;49.13;;;27.37;;
18881;SDS011;9573;50.948;11.600;2022-08-19T09:24:00;47.47;;;27.87;;
18881;SDS011;9573;50.948;11.600;2022-08-19T09:26:29;45.33;;;26.97;;
18881;SDS011;9573;50.948;11.600;2022-08-19T09:28:58;45.87;;;25.10;;
18881;SDS011;9573;50.948;11.600;2022-08-19T09:31:27;41.07;;;23.50;;
18881;SDS011;9573;50.948;11.600;2022-08-19T09:33:55;40.73;;;22.07;;
18881;SDS011;9573;50.948;11.600;2022-08-19T09:36:23;41.97;;;22.73;;
18881;SDS011;9573;50.948;11.600;2022-08-19T09:38:54;40.27;;;22.93;;
18881;SDS011;9573;50.948;11.600;2022-08-19T09:41:24;44.57;;;23.93;;
18881;SDS011;9573;50.948;11.600;2022-08-19T09:43:52;40.60;;;22.50;;
18881;SDS011;9573;50.948;11.600;2022-08-19T09:46:22;42.40;;;23.87;;
18881;SDS011;9573;50.948;11.600;2022-08-19T09:48:51;40.93;;;22.80;;
18881;SDS011;9573;50.948;11.600;2022-08-19T09:51:21;40.20;;;22.83;;
18881;SDS011;9573;50.948;11.600;2022-08-19T09:53:51;40.00;;;22.07;;
18881;SDS011;9573;50.948;11.600;2022-08-19T09:56:20;40.73;;;21.80;;
18881;SDS011;9573;50.948;11.600;2022-08-19T09:58:49;40.37;;;22.10;;
18881;SDS011;9573;50.948;11.600;2022-08-19T10:01:18;37.60;;;21.93;;
18881;SDS011;9573;50.948;11.600;2022-08-19T10:03:52;39.67;;;20.80;;
18881;SDS011;9573;50.948;11.600;2022-08-19T10:06:22;39.93;;;21.80;;
18881;SDS011;9573;50.948;11.600;2022-08-19T10:08:54;36.23;;;20.67;;
18881;SDS011;9573;50.948;11.600;2022-08-19T10:11:22;32.60;;;17.73;;
18881;SDS011;9573;50.948;11.600;2022-08-19T10:13:52;34.83;;;17.07;;
18881;SDS011;9573;50.948;11.600;2022-08-19T10:16:20;30.77;;;16.10;;
18881;SDS011;9573;50.948;11.600;2022-08-19T10:18:49;32.63;;;16.00;;
18881;SDS011;9573;50.948;11.600;2022-08-19T10:21:18;29.70;;;15.20;;
18881;SDS011;9573;50.948;11.600;2022-08-19T10:23:48;26.33;;;13.73;;
18881;SDS011;9573;50.948;11.600;2022-08-19T10:26:20;28.47;;;13.67;;
18881;SDS011;9573;50.948;11.600;2022-08-19T10:28:50;28.73;;;12.37;;
18881;SDS011;9573;50.948;11.600;2022-08-19T10:31:20;20.30;;;9.90;;
18881;SDS011;9573;50.948;11.600;2022-08-19T10:33:49;22.07;;;10.47;;
18881;SDS011;9573;50.948;11.600;2022-08-19T10:36:20;17.97;;;8.60;;
18881;SDS011;9573;50.948;11.600;2022-08-19T10:38:50;19.37;;;9.13;;
18881;SDS011;9573;50.948;11.600;2022-08-19T10:41:20;18.83;;;8.47;;
18881;SDS011;9573;50.948;11.600;2022-08-19T10:43:50;17.97;;;7.93;;
18881;SDS011;9573;50.948;11.600;2022-08-19T10:46:20;19.73;;;7.97;;
18881;SDS011;9573;50.948;11.600;2022-08-19T10:48:50;17.23;;;7.80;;
18881;SDS011;9573;50.948;11.600;2022-08-19T10:51:18;15.67;;;7.70;;
18881;SDS011;9573;50.948;11.600;2022-08-19T10:54:04;20.40;;;8.27;;
18881;SDS011;9573;50.948;11.600;2022-08-19T10:56:31;17.10;;;8.13;;
18881;SDS011;9573;50.948;11.600;2022-08-19T10:59:18;18.13;;;8.17;;
18881;SDS011;9573;50.948;11.600;2022-08-19T11:01:48;15.73;;;7.57;;
18881;SDS011;9573;50.948;11.600;2022-08-19T11:04:17;16.90;;;8.47;;
18881;SDS011;9573;50.948;11.600;2022-08-19T11:06:45;17.70;;;7.50;;
18881;SDS011;9573;50.948;11.600;2022-08-19T11:09:14;17.20;;;7.80;;
18881;SDS011;9573;50.948;11.600;2022-08-19T11:11:43;16.43;;;7.23;;
18881;SDS011;9573;50.948;11.600;2022-08-19T11:14:11;15.27;;;6.97;;
18881;SDS011;9573;50.948;11.600;2022-08-19T11:16:44;17.07;;;7.90;;
18881;SDS011;9573;50.948;11.600;2022-08-19T11:19:12;18.83;;;7.80;;
18881;SDS011;9573;50.948;11.600;2022-08-19T11:21:43;18.77;;;8.07;;
18881;SDS011;9573;50.948;11.600;2022-08-19T11:24:13;20.87;;;8.67;;
18881;SDS011;9573;50.948;11.600;2022-08-19T11:26:45;18.30;;;8.53;;
18881;SDS011;9573;50.948;11.600;2022-08-19T11:29:15;20.50;;;8.67;;
18881;SDS011;9573;50.948;11.600;2022-08-19T11:31:46;20.80;;;9.17;;
18881;SDS011;9573;50.948;11.600;2022-08-19T11:34:17;21.20;;;8.93;;
18881;SDS011;9573;50.948;11.600;2022-08-19T11:36:49;20.60;;;9.20;;
18881;SDS011;9573;50.948;11.600;2022-08-19T11:39:18;18.70;;;8.57;;
18881;SDS011;9573;50.948;11.600;2022-08-19T11:41:47;19.10;;;8.97;;
18881;SDS011;9573;50.948;11.600;2022-08-19T11:44:15;21.07;;;8.73;;
18881;SDS011;9573;50.948;11.600;2022-08-19T11:46:43;20.33;;;8.90;;
18881;SDS011;9573;50.948;11.600;2022-08-19T11:49:13;20.93;;;9.40;;
18881;SDS011;9573;50.948;11.600;2022-08-19T11:51:43;18.00;;;8.90;;
18881;SDS011;9573;50.948;11.600;2022-08-19T11:54:11;20.00;;;9.40;;
18881;SDS011;9573;50.948;11.600;2022-08-19T11:56:41;20.27;;;9.07;;
18881;SDS011;9573;50.948;11.600;2022-08-19T11:59:08;20.33;;;9.97;;
18881;SDS011;9573;50.948;11.600;2022-08-19T12:01:36;19.97;;;9.17;;
18881;SDS011;9573;50.948;11.600;2022-08-19T12:04:07;21.03;;;9.40;;
18881;SDS011;9573;50.948;11.600;2022-08-19T12:06:37;21.10;;;9.93;;
18881;SDS011;9573;50.948;11.600;2022-08-19T12:09:06;22.20;;;9.80;;
18881;SDS011;9573;50.948;11.600;2022-08-19T12:11:35;20.40;;;9.73;;
18881;SDS011;9573;50.948;11.600;2022-08-19T12:14:03;23.37;;;10.20;;
18881;SDS011;9573;50.948;11.600;2022-08-19T12:16:31;22.07;;;9.50;;
18881;SDS011;9573;50.948;11.600;2022-08-19T12:18:59;22.73;;;10.93;;
18881;SDS011;9573;50.948;11.600;2022-08-19T12:21:31;18.70;;;9.50;;
18881;SDS011;9573;50.948;11.600;2022-08-19T12:24:02;20.93;;;10.07;;
18881;SDS011;9573;50.948;11.600;2022-08-19T12:26:31;23.20;;;11.30;;
18881;SDS011;9573;50.948;11.600;2022-08-19T12:28:58;24.03;;;11.03;;
18881;SDS011;9573;50.948;11.600;2022-08-19T12:31:26;20.33;;;10.17;;
18881;SDS011;9573;50.948;11.600;2022-08-19T12:33:54;23.17;;;10.43;;
18881;SDS011;9573;50.948;11.600;2022-08-19T12:36:21;22.93;;;11.53;;
18881;SDS011;9573;50.948;11.600;2022-08-19T12:38:51;22.90;;;11.10;;
18881;SDS011;9573;50.948;11.600;2022-08-19T12:41:19;24.93;;;11.43;;
18881;SDS011;9573;50.948;11.600;2022-08-19T12:43:47;25.57;;;11.20;;
18881;SDS011;9573;50.948;11.600;2022-08-19T12:46:15;22.33;;;10.50;;
18881;SDS011;9573;50.948;11.600;2022-08-19T12:48:44;24.43;;;11.80;;
18881;SDS011;9573;50.948;11.600;2022-08-19T12:51:12;21.97;;;10.50;;
18881;SDS011;9573;50.948;11.600;2022-08-19T12:53:43;19.33;;;9.97;;
18881;SDS011;9573;50.948;11.600;2022-08-19T12:56:12;23.07;;;10.37;;
18881;SDS011;9573;50.948;11.600;2022-08-19T12:58:40;23.43;;;11.40;;
18881;SDS011;9573;50.948;11.600;2022-08-19T13:01:08;23.40;;;11.53;;
18881;SDS011;9573;50.948;11.600;2022-08-19T13:03:38;22.33;;;11.07;;
18881;SDS011;9573;50.948;11.600;2022-08-19T13:06:06;21.23;;;10.27;;
18881;SDS011;9573;50.948;11.600;2022-08-19T13:08:34;23.10;;;11.17;;
18881;SDS011;9573;50.948;11.600;2022-08-19T13:11:08;22.00;;;11.07;;
18881;SDS011;9573;50.948;11.600;2022-08-19T13:13:39;24.77;;;11.00;;
18881;SDS011;9573;50.948;11.600;2022-08-19T13:16:08;31.60;;;11.67;;
18881;SDS011;9573;50.948;11.600;2022-08-19T13:18:36;22.10;;;10.73;;
18881;SDS011;9573;50.948;11.600;2022-08-19T13:21:05;22.10;;;11.30;;
18881;SDS011;9573;50.948;11.600;2022-08-19T13:23:36;21.63;;;10.77;;
18881;SDS011;9573;50.948;11.600;2022-08-19T13:26:04;21.67;;;10.70;;
18881;SDS011;9573;50.948;11.600;2022-08-19T13:28:35;22.90;;;10.93;;
18881;SDS011;9573;50.948;11.600;2022-08-19T13:31:20;23.53;;;11.60;;
18881;SDS011;9573;50.948;11.600;2022-08-19T13:34:06;24.90;;;11.80;;
18881;SDS011;9573;50.948;11.600;2022-08-19T13:36:35;25.27;;;11.77;;
18881;SDS011;9573;50.948;11.600;2022-08-19T13:39:03;22.80;;;11.60;;
18881;SDS011;9573;50.948;11.600;2022-08-19T13:41:32;22.73;;;12.00;;
18881;SDS011;9573;50.948;11.600;2022-08-19T13:44:01;25.87;;;11.20;;
18881;SDS011;9573;50.948;11.600;2022-08-19T13:46:29;25.77;;;11.87;;
18881;SDS011;9573;50.948;11.600;2022-08-19T13:48:56;25.40;;;11.43;;
18881;SDS011;9573;50.948;11.600;2022-08-19T13:51:23;21.97;;;10.80;;
18881;SDS011;9573;50.948;11.600;2022-08-19T13:53:51;25.10;;;11.37;;
18881;SDS011;9573;50.948;11.600;2022-08-19T13:56:19;24.83;;;11.27;;
18881;SDS011;9573;50.948;11.600;2022-08-19T13:58:46;23.27;;;10.97;;
18881;SDS011;9573;50.948;11.600;2022-08-19T14:01:19;22.23;;;10.50;;
18881;SDS011;9573;50.948;11.600;2022-08-19T14:03:47;20.97;;;9.97;;
18881;SDS011;9573;50.948;11.600;2022-08-19T14:06:14;22.00;;;9.77;;
18881;SDS011;9573;50.948;11.600;2022-08-19T14:08:43;23.00;;;9.97;;
18881;SDS011;9573;50.948;11.600;2022-08-19T14:11:10;23.47;;;9.70;;
18881;SDS011;9573;50.948;11.600;2022-08-19T14:13:37;21.43;;;9.83;;
18881;SDS011;9573;50.948;11.600;2022-08-19T14:16:08;18.40;;;8.87;;
18881;SDS011;9573;50.948;11.600;2022-08-19T14:18:38;18.77;;;8.90;;
18881;SDS011;9573;50.948;11.600;2022-08-19T14:21:06;18.57;;;8.87;;
18881;SDS011;9573;50.948;11.600;2022-08-19T14:23:34;23.27;;;9.57;;
18881;SDS011;9573;50.948;11.600;2022-08-19T14:26:06;20.67;;;9.90;;
18881;SDS011;9573;50.948;11.600;2022-08-19T14:28:39;18.87;;;9.70;;
18881;SDS011;9573;50.948;11.600;2022-08-19T14:31:07;23.13;;;9.47;;
18881;SDS011;9573;50.948;11.600;2022-08-19T14:33:34;19.40;;;8.93;;
18881;SDS011;9573;50.948;11.600;2022-08-19T14:36:03;18.40;;;7.60;;
18881;SDS011;9573;50.948;11.600;2022-08-19T14:38:31;16.93;;;8.17;;